Time;durP1;ratioP1;P1;durP2;ratioP2;P2;SDS_P1;SDS_P2;PMS_P1;PMS_P2;Temp;Humidity;BMP_temperature;BMP_pressure;BME280_temperature;BME280_humidity;BME280_pressure;Samples;Min_cycle;Max_cycle;Signal;HPM_P1;HPM_P2
2023/12/02 00:00:05;;;;;;;11.68;10.48;;;22.50;73.70;;;;;;6227603;28;89239;-59
2023/12/02 00:03:07;;;;;;;12.13;10.88;;;22.50;73.70;;;;;;6227171;28;89118;-59
2023/12/02 00:06:10;;;;;;;11.75;10.55;;;22.60;73.70;;;;;;6226868;28;89082;-59
2023/12/02 00:09:12;;;;;;;13.93;11.57;;;22.50;73.70;;;;;;6215687;28;89063;-59
2023/12/02 00:12:14;;;;;;;12.35;11.05;;;22.50;73.70;;;;;;6238124;28;88988;-59
2023/12/02 00:15:17;;;;;;;12.15;10.95;;;22.50;73.60;;;;;;6220408;28;87401;-59
2023/12/02 00:18:20;;;;;;;12.23;10.98;;;22.50;73.60;;;;;;6214010;28;89189;-59
2023/12/02 00:21:24;;;;;;;11.73;10.52;;;22.50;73.70;;;;;;6227038;28;89059;-60
2023/12/02 00:24:26;;;;;;;13.52;10.70;;;22.50;73.70;;;;;;6227689;28;89959;-60
2023/12/02 00:27:28;;;;;;;12.27;11.02;;;22.50;73.60;;;;;;6216913;28;88009;-59
2023/12/02 00:30:31;;;;;;;11.85;10.70;;;22.50;73.50;;;;;;6207264;28;89601;-59
2023/12/02 00:33:33;;;;;;;11.70;10.60;;;22.50;73.70;;;;;;6241814;28;89356;-59
2023/12/02 00:36:36;;;;;;;12.38;11.07;;;22.40;73.60;;;;;;6217416;28;89032;-59
2023/12/02 00:39:38;;;;;;;12.00;10.80;;;22.40;73.50;;;;;;6224506;28;89855;-59
2023/12/02 00:42:40;;;;;;;12.02;10.82;;;22.40;73.50;;;;;;6226916;28;88029;-60
2023/12/02 00:45:43;;;;;;;12.05;10.85;;;22.40;73.50;;;;;;6228896;28;88461;-60
2023/12/02 00:48:45;;;;;;;12.27;11.07;;;22.40;73.50;;;;;;6227688;28;89022;-59
2023/12/02 00:51:47;;;;;;;12.52;10.98;;;22.40;73.60;;;;;;6224596;28;87982;-60
2023/12/02 00:54:49;;;;;;;12.00;10.80;;;22.40;73.50;;;;;;6216171;28;90029;-59
2023/12/02 00:57:51;;;;;;;12.05;10.85;;;22.40;73.60;;;;;;6223404;28;89687;-60
2023/12/02 01:00:56;;;;;;;12.35;11.13;;;22.40;73.50;;;;;;6228483;28;89215;-59
2023/12/02 01:03:58;;;;;;;12.20;10.95;;;22.30;73.50;;;;;;6223389;28;89090;-59
2023/12/02 01:07:00;;;;;;;12.23;11.02;;;22.30;73.40;;;;;;6231451;28;89143;-59
2023/12/02 01:10:03;;;;;;;13.93;11.63;;;22.30;73.50;;;;;;6220377;28;89076;-59
2023/12/02 01:13:05;;;;;;;12.43;11.23;;;22.40;73.50;;;;;;6234904;28;89196;-59
2023/12/02 01:16:09;;;;;;;12.05;10.85;;;22.30;73.40;;;;;;6235775;28;87510;-60
2023/12/02 01:19:11;;;;;;;12.52;11.25;;;22.30;73.40;;;;;;6226632;28;88129;-59
2023/12/02 01:22:13;;;;;;;12.35;11.05;;;22.30;73.30;;;;;;6208685;28;89127;-59
2023/12/02 01:25:15;;;;;;;15.43;12.68;;;22.30;73.40;;;;;;6209522;28;90010;-59
2023/12/02 01:28:17;;;;;;;15.45;12.57;;;22.30;73.30;;;;;;6201836;28;89049;-60
2023/12/02 01:31:21;;;;;;;12.85;11.55;;;22.40;73.40;;;;;;6208946;28;89387;-59
2023/12/02 01:34:23;;;;;;;12.68;11.38;;;22.30;73.30;;;;;;6204338;28;89252;-60
2023/12/02 01:37:24;;;;;;;14.05;11.95;;;22.30;73.30;;;;;;6206908;28;87963;-59
2023/12/02 01:40:26;;;;;;;13.43;12.02;;;22.30;73.30;;;;;;6220989;28;89019;-59
2023/12/02 01:43:28;;;;;;;12.50;11.25;;;22.30;73.30;;;;;;6230474;28;88899;-59
2023/12/02 01:46:34;;;;;;;13.23;11.93;;;22.30;73.30;;;;;;6221053;28;88645;-59
2023/12/02 01:49:37;;;;;;;13.32;12.00;;;22.30;73.30;;;;;;6229209;28;88908;-59
2023/12/02 01:52:39;;;;;;;12.80;11.50;;;22.30;74.10;;;;;;6221624;28;89424;-59
2023/12/02 01:55:41;;;;;;;13.82;12.43;;;22.30;73.20;;;;;;6229477;28;89985;-59
2023/12/02 01:58:43;;;;;;;13.70;12.32;;;22.30;73.20;;;;;;6229397;28;89200;-59
2023/12/02 02:01:46;;;;;;;13.60;12.20;;;22.30;73.20;;;;;;6228290;28;88997;-59
2023/12/02 02:04:49;;;;;;;13.85;12.43;;;22.30;73.20;;;;;;6222461;28;89419;-59
2023/12/02 02:07:51;;;;;;;13.70;12.23;;;22.30;73.20;;;;;;6210489;28;89046;-59
2023/12/02 02:10:56;;;;;;;15.70;13.48;;;22.30;73.20;;;;;;6230784;28;89109;-59
2023/12/02 02:13:58;;;;;;;13.55;12.18;;;22.30;73.10;;;;;;6224470;28;87948;-59
2023/12/02 02:17:02;;;;;;;14.20;12.68;;;22.30;73.10;;;;;;6221561;28;88379;-59
2023/12/02 02:20:05;;;;;;;13.82;12.38;;;22.20;73.00;;;;;;6222767;28;89413;-58
2023/12/02 02:23:08;;;;;;;14.00;12.30;;;22.20;73.00;;;;;;6216065;28;87983;-59
2023/12/02 02:26:10;;;;;;;14.05;12.65;;;22.20;73.20;;;;;;6220297;28;90090;-59
2023/12/02 02:29:12;;;;;;;13.75;12.35;;;22.20;73.10;;;;;;6220692;28;90172;-59
2023/12/02 02:32:14;;;;;;;13.77;12.38;;;22.20;73.20;;;;;;6224613;28;89008;-59
2023/12/02 02:35:17;;;;;;;13.55;12.15;;;22.20;73.20;;;;;;6228849;28;89162;-59
2023/12/02 02:38:20;;;;;;;13.90;12.30;;;22.20;73.30;;;;;;6227996;28;88993;-59
2023/12/02 02:41:22;;;;;;;14.80;13.25;;;22.10;73.20;;;;;;6229083;28;89170;-59
2023/12/02 02:44:24;;;;;;;14.48;12.98;;;22.10;73.20;;;;;;6228041;28;89024;-59
2023/12/02 02:47:27;;;;;;;14.50;12.85;;;22.20;73.30;;;;;;6218306;28;88488;-59
2023/12/02 02:50:29;;;;;;;14.32;12.85;;;22.10;73.20;;;;;;6216449;28;89004;-60
2023/12/02 02:53:32;;;;;;;13.80;12.43;;;22.10;73.20;;;;;;6208166;28;89091;-59
2023/12/02 02:56:34;;;;;;;14.60;12.95;;;22.10;74.20;;;;;;6224815;28;90183;-59
2023/12/02 02:59:36;;;;;;;14.50;13.00;;;22.00;73.20;;;;;;6227135;28;89138;-59
2023/12/02 03:02:39;;;;;;;13.70;12.30;;;22.10;73.30;;;;;;6221281;28;89570;-59
2023/12/02 03:05:41;;;;;;;13.50;12.10;;;22.00;73.20;;;;;;6228143;28;89045;-59
2023/12/02 03:08:44;;;;;;;13.48;12.07;;;22.00;73.20;;;;;;6222065;28;89029;-59
2023/12/02 03:11:48;;;;;;;14.30;12.80;;;22.00;73.20;;;;;;6220301;28;89196;-60
2023/12/02 03:14:50;;;;;;;14.10;12.52;;;22.00;74.10;;;;;;6217231;28;91210;-59
2023/12/02 03:17:53;;;;;;;13.75;12.35;;;22.00;73.20;;;;;;6214876;28;88432;-59
2023/12/02 03:20:55;;;;;;;14.35;12.55;;;22.00;73.20;;;;;;6229106;28;89307;-59
2023/12/02 03:23:58;;;;;;;12.80;11.50;;;22.00;73.20;;;;;;6218948;28;89639;-59
2023/12/02 03:27:00;;;;;;;16.90;13.80;;;22.00;73.20;;;;;;6214841;27;89933;-60
2023/12/02 03:30:02;;;;;;;13.52;12.18;;;22.00;73.20;;;;;;6219824;28;89087;-59
2023/12/02 03:33:06;;;;;;;12.75;11.55;;;22.00;73.20;;;;;;6208385;28;88996;-59
2023/12/02 03:36:09;;;;;;;13.18;11.75;;;22.00;73.20;;;;;;6219421;28;92016;-59
2023/12/02 03:39:12;;;;;;;13.95;12.55;;;21.90;73.20;;;;;;6224257;28;89306;-59
2023/12/02 03:42:14;;;;;;;12.73;11.45;;;22.00;74.10;;;;;;6219254;28;89167;-59
2023/12/02 03:45:16;;;;;;;12.73;11.43;;;21.90;73.20;;;;;;6229309;28;89223;-59
2023/12/02 03:48:19;;;;;;;12.35;11.15;;;22.00;73.30;;;;;;6216372;28;88417;-59
2023/12/02 03:51:21;;;;;;;12.57;11.27;;;21.90;73.20;;;;;;6213827;28;88992;-60
2023/12/02 03:54:24;;;;;;;12.75;11.23;;;21.90;73.20;;;;;;6213565;28;89087;-59
2023/12/02 03:57:26;;;;;;;12.05;10.85;;;21.90;73.20;;;;;;6219309;28;90097;-59
2023/12/02 04:00:28;;;;;;;15.38;12.02;;;21.90;73.20;;;;;;6216381;28;89026;-59
2023/12/02 04:03:30;;;;;;;13.10;11.38;;;22.00;73.20;;;;;;6228304;28;89014;-60
2023/12/02 04:06:32;;;;;;;12.43;11.13;;;21.90;73.20;;;;;;6230655;28;89118;-59
2023/12/02 04:09:36;;;;;;;12.57;11.32;;;21.90;73.10;;;;;;6219884;28;89062;-59
2023/12/02 04:12:38;;;;;;;12.50;11.20;;;21.90;73.00;;;;;;6227378;28;89037;-59
2023/12/02 04:15:40;;;;;;;12.43;11.18;;;21.90;73.00;;;;;;6228556;28;89186;-59
2023/12/02 04:18:42;;;;;;;11.50;10.30;;;21.90;73.00;;;;;;6235444;28;88295;-59
2023/12/02 04:21:46;;;;;;;11.85;10.60;;;21.90;73.00;;;;;;6230498;28;89200;-59
2023/12/02 04:24:49;;;;;;;12.05;10.70;;;21.90;73.00;;;;;;6227713;28;87963;-59
2023/12/02 04:27:51;;;;;;;11.90;10.52;;;21.90;73.00;;;;;;6223848;28;90069;-59
2023/12/02 04:30:53;;;;;;;14.00;11.45;;;21.90;73.00;;;;;;6224141;28;89100;-59
2023/12/02 04:33:55;;;;;;;11.93;10.52;;;21.90;72.90;;;;;;6217128;28;89312;-59
2023/12/02 04:36:57;;;;;;;11.90;10.70;;;22.00;73.00;;;;;;6225272;28;89220;-58
2023/12/02 04:40:04;;;;;;;11.52;10.32;;;22.00;73.00;;;;;;6221397;28;88066;-59
2023/12/02 04:43:06;;;;;;;10.82;9.77;;;22.00;73.00;;;;;;6235280;28;89065;-59
2023/12/02 04:46:08;;;;;;;11.20;9.98;;;22.00;73.00;;;;;;6209007;28;87859;-59
2023/12/02 04:49:11;;;;;;;11.15;10.00;;;21.90;73.00;;;;;;6217562;28;87507;-59
2023/12/02 04:52:13;;;;;;;10.93;9.82;;;21.90;73.00;;;;;;6219917;28;89053;-60
2023/12/02 04:55:17;;;;;;;11.38;10.15;;;21.90;73.00;;;;;;6231362;28;88919;-59
2023/12/02 04:58:19;;;;;;;11.38;9.85;;;21.90;73.00;;;;;;6230635;28;89968;-59
2023/12/02 05:01:21;;;;;;;10.57;9.48;;;21.90;72.90;;;;;;6223433;28;89035;-59
2023/12/02 05:04:23;;;;;;;10.50;9.40;;;21.90;73.00;;;;;;6230816;28;89068;-59
2023/12/02 05:07:25;;;;;;;10.82;9.73;;;21.90;73.00;;;;;;6215386;28;88796;-59
2023/12/02 05:10:28;;;;;;;10.32;9.23;;;21.90;73.00;;;;;;6219801;28;89139;-59
2023/12/02 05:13:31;;;;;;;10.63;9.52;;;22.00;73.00;;;;;;6223003;28;89088;-59
2023/12/02 05:16:32;;;;;;;10.20;9.02;;;22.00;72.90;;;;;;6218510;28;87981;-59
2023/12/02 05:19:34;;;;;;;10.20;9.20;;;22.00;72.80;;;;;;6212062;28;88294;-59
2023/12/02 05:22:36;;;;;;;10.98;9.57;;;22.00;72.80;;;;;;6215566;28;88996;-59
2023/12/02 05:25:40;;;;;;;9.43;8.48;;;22.00;72.70;;;;;;6224650;28;89130;-59
2023/12/02 05:28:43;;;;;;;10.18;9.05;;;22.10;72.70;;;;;;6224101;28;89947;-59
2023/12/02 05:31:45;;;;;;;9.75;8.75;;;22.10;72.70;;;;;;6216617;28;89381;-59
2023/12/02 05:34:47;;;;;;;9.13;8.23;;;22.10;72.60;;;;;;6222493;28;89180;-59
2023/12/02 05:37:50;;;;;;;9.98;8.98;;;22.10;72.60;;;;;;6219972;28;89020;-59
2023/12/02 05:40:53;;;;;;;9.85;8.88;;;22.10;72.50;;;;;;6232960;28;89202;-59
2023/12/02 05:43:55;;;;;;;8.93;8.02;;;22.10;72.50;;;;;;6241986;28;89543;-59
2023/12/02 05:46:57;;;;;;;9.82;8.82;;;22.10;72.60;;;;;;6221519;28;87955;-59
2023/12/02 05:49:59;;;;;;;11.40;9.25;;;22.10;72.60;;;;;;6215340;28;87869;-60
2023/12/02 05:53:03;;;;;;;10.43;9.02;;;22.10;72.70;;;;;;6233584;28;89107;-59
2023/12/02 05:56:08;;;;;;;9.70;8.70;;;22.10;72.70;;;;;;6225437;28;89098;-59
2023/12/02 05:59:10;;;;;;;9.20;8.30;;;22.10;72.70;;;;;;6219629;28;90341;-59
2023/12/02 06:02:15;;;;;;;9.88;8.82;;;22.00;72.70;;;;;;6222962;28;89827;-59
2023/12/02 06:05:19;;;;;;;12.40;9.20;;;22.00;72.70;;;;;;6236124;28;89063;-59
2023/12/02 06:08:22;;;;;;;10.45;9.07;;;22.00;72.80;;;;;;6231404;28;89071;-58
2023/12/02 06:11:25;;;;;;;9.70;8.80;;;22.00;72.80;;;;;;6234453;28;87806;-60
2023/12/02 06:14:27;;;;;;;10.38;9.38;;;22.00;73.00;;;;;;6232319;28;89255;-59
2023/12/02 06:17:29;;;;;;;10.15;9.15;;;22.00;73.00;;;;;;6228244;28;89110;-59
2023/12/02 06:20:31;;;;;;;10.35;9.35;;;22.00;73.20;;;;;;6233550;28;89828;-59
2023/12/02 06:23:33;;;;;;;10.50;9.40;;;22.00;73.30;;;;;;6219579;28;89308;-59
2023/12/02 06:26:36;;;;;;;10.68;9.57;;;22.00;73.30;;;;;;6233657;28;89084;-60
2023/12/02 06:29:38;;;;;;;12.10;10.35;;;22.00;73.20;;;;;;6232251;28;90007;-59
2023/12/02 06:32:40;;;;;;;12.50;10.48;;;22.00;73.30;;;;;;6212050;28;89179;-59
2023/12/02 06:35:42;;;;;;;11.15;10.05;;;22.00;73.20;;;;;;6245057;28;88983;-59
2023/12/02 06:38:45;;;;;;;12.32;10.60;;;22.00;73.20;;;;;;6229627;28;89041;-60
2023/12/02 06:41:48;;;;;;;11.50;10.32;;;22.00;73.10;;;;;;6231611;28;89204;-59
2023/12/02 06:44:50;;;;;;;10.90;9.80;;;21.90;73.00;;;;;;6230801;28;89078;-59
2023/12/02 06:47:52;;;;;;;11.23;10.00;;;21.90;73.20;;;;;;6230629;28;89062;-59
2023/12/02 06:50:55;;;;;;;11.82;10.63;;;21.90;73.20;;;;;;6230956;28;88366;-59
2023/12/02 06:53:57;;;;;;;12.50;10.93;;;21.90;73.20;;;;;;6235339;28;87993;-59
2023/12/02 06:57:01;;;;;;;12.48;10.80;;;21.90;73.20;;;;;;6231770;28;89071;-59
2023/12/02 07:00:05;;;;;;;13.52;11.35;;;21.90;73.10;;;;;;6218080;28;90979;-59
2023/12/02 07:03:08;;;;;;;11.85;10.65;;;21.90;73.00;;;;;;6231664;28;88874;-59
2023/12/02 07:06:11;;;;;;;11.35;10.25;;;21.90;73.00;;;;;;6230135;28;89191;-59
2023/12/02 07:09:13;;;;;;;11.60;10.50;;;21.90;73.00;;;;;;6231603;28;89370;-59
2023/12/02 07:12:16;;;;;;;11.25;10.15;;;22.00;73.10;;;;;;6230972;28;89581;-59
2023/12/02 07:15:18;;;;;;;11.20;10.10;;;22.00;73.10;;;;;;6240363;28;90146;-59
2023/12/02 07:18:20;;;;;;;11.57;10.45;;;22.00;73.10;;;;;;6232514;28;88665;-59
2023/12/02 07:21:22;;;;;;;15.90;11.98;;;22.00;73.00;;;;;;6232655;28;88350;-59
2023/12/02 07:24:24;;;;;;;11.52;10.43;;;22.00;73.00;;;;;;6220774;28;89075;-59
2023/12/02 07:27:28;;;;;;;11.90;10.80;;;22.00;73.00;;;;;;6230221;28;87956;-59
2023/12/02 07:30:30;;;;;;;10.88;9.77;;;22.00;72.90;;;;;;6229800;28;90067;-59
2023/12/02 07:33:32;;;;;;;11.45;10.35;;;22.00;72.80;;;;;;6230653;28;89171;-59
2023/12/02 07:36:34;;;;;;;11.40;10.30;;;22.10;72.80;;;;;;6232657;28;89065;-59
2023/12/02 07:39:36;;;;;;;11.85;10.65;;;22.10;72.80;;;;;;6228287;28;89195;-59
2023/12/02 07:42:40;;;;;;;11.18;10.02;;;22.10;72.70;;;;;;6226359;28;89037;-59
2023/12/02 07:45:42;;;;;;;11.55;10.32;;;22.20;72.80;;;;;;6232124;28;89128;-59
2023/12/02 07:48:44;;;;;;;12.07;10.65;;;22.20;72.70;;;;;;6232908;28;89068;-59
2023/12/02 07:51:46;;;;;;;11.18;10.07;;;22.20;72.70;;;;;;6230884;28;88671;-59
2023/12/02 07:54:48;;;;;;;11.50;10.40;;;22.20;72.70;;;;;;6221077;28;89106;-59
2023/12/02 07:57:52;;;;;;;11.60;10.50;;;22.20;72.70;;;;;;6222508;28;87970;-59
2023/12/02 08:00:54;;;;;;;11.13;10.02;;;22.20;72.70;;;;;;6209921;28;89983;-59
2023/12/02 08:03:56;;;;;;;11.35;10.25;;;22.20;72.70;;;;;;6225970;28;89041;-59
2023/12/02 08:06:57;;;;;;;12.90;11.23;;;22.20;72.70;;;;;;6229462;28;89470;-59
2023/12/02 08:10:00;;;;;;;11.55;10.35;;;22.20;72.70;;;;;;6213148;28;89124;-59
2023/12/02 08:13:04;;;;;;;11.85;10.75;;;22.30;72.80;;;;;;6217154;28;89181;-59
2023/12/02 08:16:06;;;;;;;12.10;10.90;;;22.30;72.80;;;;;;6239983;28;89076;-59
2023/12/02 08:19:08;;;;;;;11.35;10.25;;;22.20;72.70;;;;;;6239403;28;89112;-59
2023/12/02 08:22:10;;;;;;;11.23;10.13;;;22.20;72.70;;;;;;6234907;28;88367;-59
2023/12/02 08:25:12;;;;;;;11.13;10.02;;;22.20;72.70;;;;;;6223403;28;89006;-59
2023/12/02 08:28:15;;;;;;;11.23;10.13;;;22.20;72.70;;;;;;6229268;28;89234;-59
2023/12/02 08:31:17;;;;;;;12.82;10.40;;;22.30;72.70;;;;;;6220529;28;88807;-59
2023/12/02 08:34:19;;;;;;;10.63;9.73;;;22.30;72.70;;;;;;6233375;28;89019;-59
2023/12/02 08:37:21;;;;;;;12.07;10.65;;;22.30;72.70;;;;;;6226440;28;89070;-59
2023/12/02 08:40:23;;;;;;;14.13;11.23;;;22.30;72.70;;;;;;6212486;28;87891;-59
2023/12/02 08:43:27;;;;;;;10.43;9.43;;;22.30;72.70;;;;;;6206937;28;89145;-60
2023/12/02 08:46:28;;;;;;;11.30;10.20;;;22.30;72.80;;;;;;6206254;28;89486;-60
2023/12/02 08:49:30;;;;;;;10.82;9.82;;;22.30;72.70;;;;;;6227577;28;89071;-59
2023/12/02 08:52:33;;;;;;;11.27;10.18;;;22.30;72.70;;;;;;6218236;28;87461;-59
2023/12/02 08:55:35;;;;;;;12.25;10.52;;;22.30;72.70;;;;;;6220582;28;89328;-59
2023/12/02 08:58:38;;;;;;;10.70;9.70;;;22.30;72.80;;;;;;6212099;28;89018;-59
2023/12/02 09:01:40;;;;;;;11.38;9.98;;;22.40;72.80;;;;;;6218708;28;89766;-59
2023/12/02 09:04:43;;;;;;;11.27;10.18;;;22.40;72.80;;;;;;6230818;28;89185;-59
2023/12/02 09:07:45;;;;;;;11.07;9.98;;;22.30;72.80;;;;;;6240407;28;89081;-59
2023/12/02 09:10:46;;;;;;;11.00;9.90;;;22.30;72.80;;;;;;6221118;28;89002;-59
2023/12/02 09:13:50;;;;;;;11.00;9.93;;;22.40;72.90;;;;;;6213276;28;89312;-59
2023/12/02 09:16:52;;;;;;;10.55;9.52;;;22.30;72.80;;;;;;6214246;28;89073;-60
2023/12/02 09:19:55;;;;;;;10.85;9.82;;;22.30;72.80;;;;;;6229498;28;89357;-59
2023/12/02 09:23:01;;;;;;;10.40;9.30;;;22.30;72.80;;;;;;6227728;28;88353;-59
2023/12/02 09:26:26;;;;;;;11.25;10.10;;;22.30;72.80;;;;;;6219741;28;89891;-59
2023/12/02 09:29:36;;;;;;;11.88;10.27;;;22.30;72.80;;;;;;6220086;28;89123;-59
2023/12/02 09:32:46;;;;;;;11.82;10.35;;;22.30;72.80;;;;;;6231068;28;89985;-59
2023/12/02 09:35:53;;;;;;;10.18;9.18;;;22.30;72.80;;;;;;6232748;28;89104;-59
2023/12/02 09:38:55;;;;;;;10.45;9.45;;;22.30;72.80;;;;;;6224845;28;89088;-59
2023/12/02 09:42:03;;;;;;;10.80;9.52;;;22.30;72.80;;;;;;6207328;28;88042;-59
2023/12/02 09:45:08;;;;;;;12.10;9.75;;;22.30;72.80;;;;;;6218983;28;88107;-59
2023/12/02 09:48:20;;;;;;;10.23;9.23;;;22.40;72.80;;;;;;6196353;28;89152;-59
2023/12/02 09:51:35;;;;;;;10.13;9.18;;;22.30;72.90;;;;;;6197894;28;90457;-58
2023/12/02 09:54:44;;;;;;;10.13;9.18;;;22.40;73.80;;;;;;6197898;28;88367;-59
2023/12/02 09:57:52;;;;;;;10.65;9.65;;;22.30;72.80;;;;;;6193098;28;89101;-59
2023/12/02 10:01:08;;;;;;;9.77;8.88;;;22.40;72.90;;;;;;6198929;28;89098;-59
2023/12/02 10:04:20;;;;;;;9.95;8.98;;;22.40;72.80;;;;;;6205333;28;91580;-59
2023/12/02 10:07:34;;;;;;;10.07;9.18;;;22.40;72.90;;;;;;6208154;28;89056;-59
2023/12/02 10:10:44;;;;;;;9.80;8.90;;;22.40;72.90;;;;;;6194851;28;89063;-59
2023/12/02 10:13:54;;;;;;;10.13;9.13;;;22.40;72.90;;;;;;6213385;28;89187;-59
2023/12/02 10:16:58;;;;;;;9.20;8.32;;;22.40;72.90;;;;;;6232187;28;89094;-59
2023/12/02 10:20:09;;;;;;;9.63;8.68;;;22.40;72.80;;;;;;6211345;28;87919;-59
2023/12/02 10:23:19;;;;;;;9.65;8.75;;;22.40;72.80;;;;;;6187873;28;89136;-59
2023/12/02 10:26:28;;;;;;;10.27;9.18;;;22.50;72.90;;;;;;6206033;28;88334;-59
2023/12/02 10:29:35;;;;;;;11.48;9.77;;;22.50;73.80;;;;;;6185540;28;89218;-60
2023/12/02 10:32:54;;;;;;;9.98;8.95;;;22.50;72.90;;;;;;6196022;28;89147;-59
2023/12/02 10:35:58;;;;;;;11.30;9.30;;;22.50;72.90;;;;;;6197064;28;90053;-59
2023/12/02 10:39:09;;;;;;;10.10;8.88;;;22.50;72.90;;;;;;6210480;28;89027;-59
2023/12/02 10:42:17;;;;;;;9.23;8.30;;;22.50;73.00;;;;;;6208823;28;89416;-59
2023/12/02 10:45:22;;;;;;;9.60;8.68;;;22.50;73.00;;;;;;6221612;28;88991;-59
2023/12/02 10:48:27;;;;;;;10.30;9.02;;;22.50;73.00;;;;;;6209738;28;89052;-59
2023/12/02 10:51:29;;;;;;;9.10;8.30;;;22.50;72.90;;;;;;6219351;28;89110;-59
2023/12/02 10:54:35;;;;;;;9.38;8.48;;;22.50;72.90;;;;;;6218677;28;89180;-59
2023/12/02 10:57:39;;;;;;;9.32;8.43;;;22.50;72.90;;;;;;6239046;28;88313;-59
2023/12/02 11:00:47;;;;;;;9.45;8.55;;;22.50;72.90;;;;;;6224216;28;89386;-59
2023/12/02 11:03:53;;;;;;;9.25;8.35;;;22.50;72.90;;;;;;6233100;28;89158;-59
2023/12/02 11:07:03;;;;;;;8.57;7.72;;;22.50;72.90;;;;;;6231704;28;90073;-59
2023/12/02 11:10:08;;;;;;;8.57;7.78;;;22.50;72.90;;;;;;6239838;28;89917;-59
2023/12/02 11:13:13;;;;;;;9.02;8.13;;;22.50;72.90;;;;;;6210234;28;89337;-59
2023/12/02 11:16:26;;;;;;;9.45;8.18;;;22.50;73.00;;;;;;6219164;28;89200;-59
2023/12/02 11:19:45;;;;;;;11.15;8.82;;;22.50;73.00;;;;;;6218339;28;88310;-59
2023/12/02 11:23:20;;;;;;;9.50;8.50;;;22.60;73.00;;;;;;6222512;28;89387;-59
2023/12/02 11:26:33;;;;;;;8.82;7.93;;;22.60;73.00;;;;;;6191806;28;89068;-59
2023/12/02 11:29:48;;;;;;;9.00;8.10;;;22.60;73.00;;;;;;6207359;28;88095;-59
2023/12/02 11:32:57;;;;;;;9.07;8.18;;;22.60;73.00;;;;;;6213431;28;88076;-59
2023/12/02 11:36:09;;;;;;;8.75;7.90;;;22.60;73.00;;;;;;6216220;28;89106;-59
2023/12/02 11:39:25;;;;;;;8.68;7.80;;;22.50;73.00;;;;;;6219072;28;90047;-59
2023/12/02 11:42:35;;;;;;;8.73;7.82;;;22.60;73.00;;;;;;6223054;28;89086;-59
2023/12/02 11:45:40;;;;;;;8.32;7.50;;;22.60;73.00;;;;;;6225115;28;89066;-59
2023/12/02 11:48:51;;;;;;;9.35;8.35;;;22.60;72.90;;;;;;6215267;28;89215;-59
2023/12/02 11:52:10;;;;;;;8.77;7.72;;;22.60;73.00;;;;;;6210324;28;89071;-59
2023/12/02 11:55:20;;;;;;;8.38;7.53;;;22.60;72.90;;;;;;6224996;28;89127;-59
2023/12/02 11:58:28;;;;;;;8.75;7.82;;;22.60;72.90;;;;;;6209794;28;87932;-59
2023/12/02 12:01:51;;;;;;;7.63;6.90;;;22.60;72.90;;;;;;6232353;28;88451;-60
2023/12/02 12:05:11;;;;;;;8.00;7.20;;;22.60;73.00;;;;;;6221268;28;88280;-59
2023/12/02 12:08:21;;;;;;;9.50;8.07;;;22.60;73.00;;;;;;6208814;28;89118;-59
2023/12/02 12:11:23;;;;;;;11.63;8.93;;;22.60;73.00;;;;;;6215495;28;90043;-59
2023/12/02 12:14:29;;;;;;;8.50;7.47;;;22.60;73.00;;;;;;6207381;28;88081;-59
2023/12/02 12:17:31;;;;;;;8.30;7.60;;;22.60;73.00;;;;;;6206603;28;89068;-59
2023/12/02 12:20:33;;;;;;;7.68;6.97;;;22.60;73.00;;;;;;6230473;28;89066;-59
2023/12/02 12:23:37;;;;;;;7.88;7.07;;;22.60;73.00;;;;;;6213082;28;89005;-59
2023/12/02 12:26:42;;;;;;;8.50;7.60;;;22.60;73.00;;;;;;6222812;28;89127;-59
2023/12/02 12:29:54;;;;;;;8.05;7.30;;;22.60;73.00;;;;;;6230671;28;89150;-59
2023/12/02 12:32:58;;;;;;;8.85;7.95;;;22.60;73.00;;;;;;6231150;28;88601;-59
2023/12/02 12:36:00;;;;;;;8.73;7.82;;;22.60;73.00;;;;;;6230834;28;89100;-59
2023/12/02 12:39:07;;;;;;;7.82;7.03;;;22.60;72.90;;;;;;6230297;28;88967;-59
2023/12/02 12:42:10;;;;;;;8.25;7.45;;;22.60;72.90;;;;;;6222740;28;89116;-59
2023/12/02 12:45:12;;;;;;;7.85;7.05;;;22.60;72.90;;;;;;6220656;28;89006;-59
2023/12/02 12:48:23;;;;;;;7.95;7.22;;;22.60;73.00;;;;;;6214830;28;89125;-59
2023/12/02 12:51:25;;;;;;;8.93;8.13;;;22.60;72.90;;;;;;6219835;28;88131;-59
2023/12/02 12:54:31;;;;;;;8.48;7.68;;;22.60;72.90;;;;;;6214730;28;89033;-59
2023/12/02 12:57:44;;;;;;;9.20;8.30;;;22.60;73.00;;;;;;6230074;28;89000;-59
2023/12/02 13:00:48;;;;;;;8.80;8.00;;;22.60;72.90;;;;;;6215720;28;89081;-59
2023/12/02 13:03:51;;;;;;;9.13;8.23;;;22.60;73.00;;;;;;6230057;28;88328;-59
2023/12/02 13:07:02;;;;;;;9.32;8.32;;;22.60;73.00;;;;;;6234215;28;89036;-59
2023/12/02 13:10:08;;;;;;;9.73;8.75;;;22.60;73.00;;;;;;6243981;28;89056;-59
2023/12/02 13:13:14;;;;;;;9.70;8.77;;;22.60;73.00;;;;;;6233484;28;90041;-59
2023/12/02 13:16:16;;;;;;;9.50;8.60;;;22.60;73.00;;;;;;6223462;28;88970;-59
2023/12/02 13:19:18;;;;;;;9.98;8.98;;;22.70;73.00;;;;;;6242984;28;88050;-59
2023/12/02 13:22:21;;;;;;;10.15;9.15;;;22.60;73.00;;;;;;6227414;28;89759;-59
2023/12/02 13:25:26;;;;;;;10.65;9.55;;;22.60;73.00;;;;;;6229000;28;89427;-59
2023/12/02 13:28:37;;;;;;;9.70;8.80;;;22.70;73.00;;;;;;6233546;28;89393;-59
2023/12/02 13:31:40;;;;;;;10.98;9.90;;;22.70;73.00;;;;;;6226843;28;89177;-59
2023/12/02 13:34:50;;;;;;;9.95;9.05;;;22.70;73.00;;;;;;6239407;28;87521;-59
2023/12/02 13:38:03;;;;;;;10.45;9.50;;;22.70;73.00;;;;;;6226953;28;89105;-59
2023/12/02 13:41:16;;;;;;;10.63;9.63;;;22.70;73.00;;;;;;6212425;28;89231;-59
2023/12/02 13:44:21;;;;;;;10.82;9.80;;;22.70;72.90;;;;;;6234433;28;90144;-59
2023/12/02 13:47:29;;;;;;;10.40;9.45;;;22.70;72.90;;;;;;6236090;28;89115;-59
2023/12/02 13:50:37;;;;;;;10.63;9.68;;;22.70;72.90;;;;;;6228722;28;88701;-59
2023/12/02 13:53:46;;;;;;;11.00;10.00;;;22.70;72.90;;;;;;6214668;28;89057;-60
2023/12/02 13:56:56;;;;;;;10.95;9.95;;;22.70;72.90;;;;;;6245115;28;89246;-59
2023/12/02 14:00:05;;;;;;;11.30;10.10;;;22.70;72.90;;;;;;6211383;28;88989;-59
2023/12/02 14:03:22;;;;;;;11.38;10.27;;;22.70;72.90;;;;;;6232115;28;89380;-59
2023/12/02 14:06:27;;;;;;;11.90;10.73;;;22.70;72.80;;;;;;6229945;28;88570;-59
2023/12/02 14:09:30;;;;;;;11.77;10.68;;;22.70;72.80;;;;;;6238073;28;89099;-59
2023/12/02 14:13:10;;;;;;;12.10;11.00;;;22.70;72.70;;;;;;6229141;28;89623;-59
2023/12/02 14:16:33;;;;;;;12.20;11.00;;;22.70;72.80;;;;;;6184337;28;90043;-60
2023/12/02 14:20:00;;;;;;;12.02;10.90;;;22.70;72.80;;;;;;6223545;28;88032;-59
2023/12/02 14:23:36;;;;;;;11.75;10.63;;;22.70;72.70;;;;;;6230315;28;89014;-59
2023/12/02 14:27:08;;;;;;;11.90;10.70;;;22.70;72.70;;;;;;6228044;28;88240;-60
2023/12/02 14:30:41;;;;;;;12.32;11.23;;;22.70;72.70;;;;;;6236553;28;88230;-59
2023/12/02 14:34:13;;;;;;;11.90;10.80;;;22.70;72.70;;;;;;6243354;28;89610;-59
2023/12/02 14:37:34;;;;;;;11.85;10.75;;;22.70;72.60;;;;;;6218476;28;89084;-59
2023/12/02 14:40:49;;;;;;;11.98;10.88;;;22.70;72.60;;;;;;6218376;28;88685;-59
2023/12/02 14:44:01;;;;;;;12.07;10.93;;;22.70;72.70;;;;;;6221095;28;87983;-59
2023/12/02 14:47:06;;;;;;;12.00;10.88;;;22.70;72.70;;;;;;6226506;28;89144;-59
2023/12/02 14:50:09;;;;;;;14.80;11.73;;;22.70;72.60;;;;;;6212249;28;91013;-59
2023/12/02 14:53:11;;;;;;;12.43;11.20;;;22.70;72.60;;;;;;6207421;28;89097;-59
2023/12/02 14:56:40;;;;;;;11.55;10.45;;;22.70;72.50;;;;;;6211379;28;89122;-59
2023/12/02 14:59:43;;;;;;;12.40;11.20;;;22.70;72.50;;;;;;6205626;28;89118;-59
2023/12/02 15:02:51;;;;;;;11.40;10.38;;;22.70;72.70;;;;;;6199562;28;88801;-60
2023/12/02 15:05:55;;;;;;;12.55;11.38;;;22.70;72.60;;;;;;6201636;28;89112;-59
2023/12/02 15:09:01;;;;;;;11.80;10.70;;;22.70;72.60;;;;;;6206042;28;89219;-59
2023/12/02 15:12:06;;;;;;;11.07;10.07;;;22.70;72.60;;;;;;6193532;28;88369;-59
2023/12/02 15:15:09;;;;;;;11.80;10.70;;;22.70;72.70;;;;;;6208271;28;89273;-59
2023/12/02 15:18:19;;;;;;;13.75;11.25;;;22.70;72.60;;;;;;6226421;28;88895;-59
2023/12/02 15:21:21;;;;;;;12.52;11.02;;;22.70;72.70;;;;;;6240337;28;89940;-59
2023/12/02 15:24:23;;;;;;;11.15;10.10;;;22.70;72.60;;;;;;6217636;28;88977;-59
2023/12/02 15:27:24;;;;;;;11.57;10.48;;;22.70;72.50;;;;;;6215207;28;89132;-59
2023/12/02 15:30:26;;;;;;;11.73;10.63;;;22.70;72.50;;;;;;6215996;28;89040;-59
2023/12/02 15:33:43;;;;;;;11.60;10.50;;;22.70;72.50;;;;;;6230509;28;88670;-59
2023/12/02 15:36:44;;;;;;;11.70;10.50;;;22.70;72.50;;;;;;6228197;28;89164;-59
2023/12/02 15:39:47;;;;;;;11.20;10.10;;;22.70;72.60;;;;;;6219328;28;89283;-59
2023/12/02 15:42:49;;;;;;;11.38;10.27;;;22.70;72.50;;;;;;6206595;28;88349;-60
2023/12/02 15:45:54;;;;;;;11.25;10.15;;;22.70;72.60;;;;;;6219947;28;87954;-59